Time;durP1;ratioP1;P1;durP2;ratioP2;P2;SDS_P1;SDS_P2;PMS_P1;PMS_P2;Temp;Humidity;BMP_temperature;BMP_pressure;BME280_temperature;BME280_humidity;BME280_pressure;Samples;Min_cycle;Max_cycle;Signal;HPM_P1;HPM_P2
2022/09/02 00:00:43;;;;;;;3.30;1.90;;;;;;;;;;5034712;28;20045;-68
2022/09/02 00:03:11;;;;;;;4.53;2.17;;;;;;;;;;5034588;28;20318;-68
2022/09/02 00:05:38;;;;;;;2.95;1.98;;;;;;;;;;5034330;28;20087;-68
2022/09/02 00:08:05;;;;;;;4.07;1.83;;;;;;;;;;5034418;28;20107;-68
2022/09/02 00:10:33;;;;;;;3.10;2.00;;;;;;;;;;5034623;28;20451;-68
2022/09/02 00:13:00;;;;;;;2.85;1.77;;;;;;;;;;5034457;28;20081;-68
2022/09/02 00:15:27;;;;;;;3.05;1.95;;;;;;;;;;5033192;28;20150;-68
2022/09/02 00:17:53;;;;;;;4.25;2.00;;;;;;;;;;5034130;28;20531;-68
2022/09/02 00:20:24;;;;;;;4.70;2.00;;;;;;;;;;5034451;28;20048;-68
2022/09/02 00:22:51;;;;;;;2.97;1.83;;;;;;;;;;5034052;28;20482;-68
2022/09/02 00:25:17;;;;;;;3.40;1.90;;;;;;;;;;5034023;28;20081;-68
2022/09/02 00:27:44;;;;;;;2.75;1.83;;;;;;;;;;5034037;28;20506;-68
2022/09/02 00:30:11;;;;;;;2.20;2.00;;;;;;;;;;5033902;28;20497;-68
2022/09/02 00:32:38;;;;;;;4.68;2.05;;;;;;;;;;5033892;28;20081;-68
2022/09/02 00:35:05;;;;;;;4.33;2.20;;;;;;;;;;5034091;28;20049;-68
2022/09/02 00:37:31;;;;;;;2.83;2.10;;;;;;;;;;5034110;28;20703;-68
2022/09/02 00:39:58;;;;;;;2.38;2.00;;;;;;;;;;5034068;28;20332;-68
2022/09/02 00:42:24;;;;;;;3.78;2.17;;;;;;;;;;5033936;28;20077;-68
2022/09/02 00:44:51;;;;;;;4.57;2.42;;;;;;;;;;5033359;28;20585;-68
2022/09/02 00:47:18;;;;;;;2.75;2.28;;;;;;;;;;5032771;28;20099;-68
2022/09/02 00:49:50;;;;;;;2.25;2.05;;;;;;;;;;5033732;28;20049;-68
2022/09/02 00:52:22;;;;;;;4.10;2.55;;;;;;;;;;5033682;28;20081;-68
2022/09/02 00:54:51;;;;;;;3.28;2.30;;;;;;;;;;5033854;28;20050;-68
2022/09/02 00:57:21;;;;;;;4.82;2.45;;;;;;;;;;5032454;28;20091;-68
2022/09/02 00:59:53;;;;;;;3.63;2.33;;;;;;;;;;5030572;28;20050;-68
2022/09/02 01:02:22;;;;;;;3.97;2.38;;;;;;;;;;5031932;28;20144;-68
2022/09/02 01:04:49;;;;;;;2.60;2.40;;;;;;;;;;5033159;28;20508;-68
2022/09/02 01:07:16;;;;;;;2.93;2.47;;;;;;;;;;5032078;28;20168;-68
2022/09/02 01:09:42;;;;;;;4.63;2.50;;;;;;;;;;5033275;28;20559;-68
2022/09/02 01:12:12;;;;;;;4.10;2.38;;;;;;;;;;5033388;28;20088;-68
2022/09/02 01:14:39;;;;;;;2.75;2.50;;;;;;;;;;5032989;28;20122;-68
2022/09/02 01:17:06;;;;;;;2.92;2.58;;;;;;;;;;5033386;28;20099;-68
2022/09/02 01:19:34;;;;;;;4.03;2.85;;;;;;;;;;5033166;28;20154;-68
2022/09/02 01:22:01;;;;;;;2.70;2.45;;;;;;;;;;5033168;28;20077;-68
2022/09/02 01:24:28;;;;;;;2.97;1.90;;;;;;;;;;5032913;28;20053;-69
2022/09/02 01:26:56;;;;;;;3.20;2.40;;;;;;;;;;5032906;28;20046;-69
2022/09/02 01:29:23;;;;;;;2.67;2.00;;;;;;;;;;5032837;28;20085;-69
2022/09/02 01:31:50;;;;;;;2.83;2.10;;;;;;;;;;5032930;28;20075;-69
2022/09/02 01:34:17;;;;;;;3.85;2.55;;;;;;;;;;5033040;28;20061;-69
2022/09/02 01:36:43;;;;;;;3.33;2.30;;;;;;;;;;5032630;28;20053;-69
2022/09/02 01:39:11;;;;;;;4.22;2.70;;;;;;;;;;5032865;28;20045;-68
2022/09/02 01:41:37;;;;;;;2.92;2.50;;;;;;;;;;5032589;28;20382;-68
2022/09/02 01:44:04;;;;;;;2.67;2.45;;;;;;;;;;5032434;28;20072;-68
2022/09/02 01:46:31;;;;;;;2.65;2.45;;;;;;;;;;5032844;28;20049;-68
2022/09/02 01:48:58;;;;;;;4.82;2.50;;;;;;;;;;5032733;28;20105;-68
2022/09/02 01:51:24;;;;;;;2.47;2.28;;;;;;;;;;5031528;28;20077;-68
2022/09/02 01:53:50;;;;;;;4.07;2.67;;;;;;;;;;5032411;28;20424;-68
2022/09/02 01:56:17;;;;;;;3.65;2.70;;;;;;;;;;5032227;28;20085;-68
2022/09/02 01:58:43;;;;;;;3.75;3.35;;;;;;;;;;5032178;28;20080;-68
2022/09/02 02:01:10;;;;;;;4.25;3.28;;;;;;;;;;5032258;28;20501;-68
2022/09/02 02:03:37;;;;;;;4.65;3.30;;;;;;;;;;5032384;28;20069;-68
2022/09/02 02:06:10;;;;;;;6.05;3.65;;;;;;;;;;5032107;28;20073;-68
2022/09/02 02:08:37;;;;;;;3.83;3.42;;;;;;;;;;5032152;28;20457;-68
2022/09/02 02:11:04;;;;;;;4.75;3.42;;;;;;;;;;5032234;28;20049;-68
2022/09/02 02:13:31;;;;;;;3.53;3.23;;;;;;;;;;5031192;28;20444;-68
2022/09/02 02:15:57;;;;;;;4.85;4.10;;;;;;;;;;5032348;28;20130;-68
2022/09/02 02:18:24;;;;;;;4.20;3.55;;;;;;;;;;5032155;28;20037;-68
2022/09/02 02:20:50;;;;;;;5.57;3.38;;;;;;;;;;5032056;28;20076;-68
2022/09/02 02:23:17;;;;;;;6.57;3.47;;;;;;;;;;5031799;28;20057;-68
2022/09/02 02:25:44;;;;;;;4.28;3.90;;;;;;;;;;5032191;28;20495;-68
2022/09/02 02:28:10;;;;;;;5.97;4.13;;;;;;;;;;5032107;28;20041;-68
2022/09/02 02:30:37;;;;;;;5.00;3.80;;;;;;;;;;5031815;28;20091;-68
2022/09/02 02:33:03;;;;;;;4.38;3.55;;;;;;;;;;5031973;28;20091;-68
2022/09/02 02:35:30;;;;;;;4.03;3.63;;;;;;;;;;5031609;28;20080;-68
2022/09/02 02:37:56;;;;;;;5.15;3.78;;;;;;;;;;5032001;28;20046;-68
2022/09/02 02:40:23;;;;;;;6.25;3.90;;;;;;;;;;5031123;28;20072;-68
2022/09/02 02:42:54;;;;;;;4.28;3.65;;;;;;;;;;5031548;28;20049;-68
2022/09/02 02:45:21;;;;;;;5.72;4.22;;;;;;;;;;5031999;28;20077;-68
2022/09/02 02:47:49;;;;;;;5.05;4.65;;;;;;;;;;5031651;28;20095;-68
2022/09/02 02:50:17;;;;;;;7.07;3.83;;;;;;;;;;5031818;28;20429;-68
2022/09/02 02:52:43;;;;;;;;;;;;;;;;;;5032351;28;20085;-68
2022/09/02 02:55:11;;;;;;;7.93;4.70;;;;;;;;;;5031652;28;19976;-68
2022/09/02 02:57:40;;;;;;;4.25;3.95;;;;;;;;;;5030192;28;20096;-68
2022/09/02 03:00:15;;;;;;;4.60;4.20;;;;;;;;;;5030099;28;20507;-68
2022/09/02 03:02:42;;;;;;;5.07;4.45;;;;;;;;;;5031308;28;20054;-68
2022/09/02 03:05:10;;;;;;;5.32;4.43;;;;;;;;;;5031494;28;20041;-68
2022/09/02 03:07:36;;;;;;;4.97;4.53;;;;;;;;;;5030280;28;20054;-68
2022/09/02 03:10:05;;;;;;;4.70;4.03;;;;;;;;;;5033985;28;20140;-68
2022/09/02 03:12:32;;;;;;;5.05;4.00;;;;;;;;;;5035384;28;20057;-68
2022/09/02 03:15:00;;;;;;;5.35;3.72;;;;;;;;;;5035403;28;20084;-68
2022/09/02 03:17:27;;;;;;;5.13;4.05;;;;;;;;;;5034158;28;20079;-68
2022/09/02 03:19:57;;;;;;;4.35;3.92;;;;;;;;;;5035087;28;20084;-68
2022/09/02 03:22:25;;;;;;;4.97;4.13;;;;;;;;;;5035381;28;20511;-68
2022/09/02 03:24:51;;;;;;;4.95;4.03;;;;;;;;;;5035372;28;20559;-68
2022/09/02 03:27:17;;;;;;;7.30;3.92;;;;;;;;;;5035273;28;20041;-68
2022/09/02 03:29:44;;;;;;;4.35;3.80;;;;;;;;;;5035318;28;20150;-68
2022/09/02 03:32:10;;;;;;;4.90;4.25;;;;;;;;;;5035257;28;20127;-68
2022/09/02 03:34:40;;;;;;;4.88;4.38;;;;;;;;;;5034933;28;20050;-68
2022/09/02 03:37:07;;;;;;;5.15;4.53;;;;;;;;;;5033973;28;20512;-68
2022/09/02 03:39:34;;;;;;;5.60;4.50;;;;;;;;;;5035174;28;20088;-68
2022/09/02 03:42:01;;;;;;;5.45;4.80;;;;;;;;;;5035098;28;20095;-68
2022/09/02 03:44:33;;;;;;;5.57;5.03;;;;;;;;;;5035289;28;20045;-68
2022/09/02 03:46:59;;;;;;;6.90;5.30;;;;;;;;;;5033861;28;20428;-68
2022/09/02 03:49:28;;;;;;;6.13;5.53;;;;;;;;;;5035057;28;20115;-68
2022/09/02 03:51:55;;;;;;;8.48;5.85;;;;;;;;;;5034626;28;20557;-68
2022/09/02 03:54:21;;;;;;;8.10;6.32;;;;;;;;;;5034865;28;20084;-68
2022/09/02 03:56:48;;;;;;;7.32;6.63;;;;;;;;;;5035038;28;20167;-68
2022/09/02 03:59:15;;;;;;;7.63;6.50;;;;;;;;;;5034802;28;20103;-68
2022/09/02 04:01:42;;;;;;;7.78;6.97;;;;;;;;;;5035078;28;20085;-67
2022/09/02 04:04:08;;;;;;;7.70;6.90;;;;;;;;;;5034482;28;20124;-67
2022/09/02 04:06:36;;;;;;;7.40;6.78;;;;;;;;;;5033471;28;20085;-68
2022/09/02 04:09:03;;;;;;;7.15;6.50;;;;;;;;;;5034356;28;20088;-67
2022/09/02 04:11:30;;;;;;;6.70;6.10;;;;;;;;;;5034678;28;20086;-67
2022/09/02 04:13:57;;;;;;;6.13;5.63;;;;;;;;;;5034491;28;20049;-67
2022/09/02 04:16:30;;;;;;;7.38;5.90;;;;;;;;;;5034256;28;20544;-68
2022/09/02 04:18:57;;;;;;;6.32;5.82;;;;;;;;;;5034467;28;20049;-68
2022/09/02 04:21:24;;;;;;;6.80;6.20;;;;;;;;;;5034137;28;20049;-68
2022/09/02 04:23:53;;;;;;;7.43;6.72;;;;;;;;;;5034029;28;20084;-68
2022/09/02 04:26:20;;;;;;;7.07;6.28;;;;;;;;;;5033986;28;20130;-68
2022/09/02 04:28:48;;;;;;;6.88;6.28;;;;;;;;;;5034143;28;20092;-68
2022/09/02 04:31:16;;;;;;;7.20;6.38;;;;;;;;;;5034171;28;20442;-68
2022/09/02 04:33:42;;;;;;;8.13;6.97;;;;;;;;;;5034263;28;20076;-68
2022/09/02 04:36:10;;;;;;;7.07;6.45;;;;;;;;;;5034127;28;20150;-68
2022/09/02 04:38:40;;;;;;;7.60;6.57;;;;;;;;;;5033877;28;20508;-68
2022/09/02 04:41:08;;;;;;;8.00;7.15;;;;;;;;;;5034021;28;20084;-68
2022/09/02 04:43:34;;;;;;;7.70;7.00;;;;;;;;;;5033942;28;20076;-68
2022/09/02 04:46:03;;;;;;;7.93;7.22;;;;;;;;;;5033717;28;20088;-68
2022/09/02 04:48:29;;;;;;;7.57;6.88;;;;;;;;;;5033578;28;20529;-67
2022/09/02 04:50:56;;;;;;;7.75;6.90;;;;;;;;;;5033888;28;20053;-67
2022/09/02 04:53:22;;;;;;;6.97;6.20;;;;;;;;;;5033813;28;20081;-67
2022/09/02 04:55:49;;;;;;;6.90;6.32;;;;;;;;;;5033854;28;20080;-68
2022/09/02 04:58:23;;;;;;;9.20;8.30;;;;;;;;;;5033717;28;20052;-68
2022/09/02 05:00:49;;;;;;;9.60;8.70;;;;;;;;;;5033471;28;20068;-67
2022/09/02 05:03:18;;;;;;;9.45;8.05;;;;;;;;;;5033433;28;20125;-67
2022/09/02 05:05:46;;;;;;;9.98;7.90;;;;;;;;;;5033532;28;20087;-67
2022/09/02 05:08:13;;;;;;;9.05;7.97;;;;;;;;;;5033405;28;20497;-67
2022/09/02 05:10:39;;;;;;;9.57;7.38;;;;;;;;;;5033487;28;20128;-67
2022/09/02 05:13:06;;;;;;;8.52;7.72;;;;;;;;;;5033488;28;20080;-67
2022/09/02 05:15:37;;;;;;;9.52;8.60;;;;;;;;;;5033131;28;20049;-68
2022/09/02 05:18:05;;;;;;;9.40;8.50;;;;;;;;;;5033100;28;20050;-68
2022/09/02 05:20:31;;;;;;;10.23;9.02;;;;;;;;;;5033372;28;20041;-68
2022/09/02 05:22:58;;;;;;;10.90;9.47;;;;;;;;;;5033061;28;20086;-68
2022/09/02 05:25:24;;;;;;;11.23;10.02;;;;;;;;;;5032899;28;20529;-68
2022/09/02 05:27:50;;;;;;;10.55;9.55;;;;;;;;;;5032829;28;20096;-67
2022/09/02 05:30:17;;;;;;;11.88;10.25;;;;;;;;;;5033135;28;20080;-67
2022/09/02 05:32:45;;;;;;;10.95;9.95;;;;;;;;;;5032347;28;20045;-67
2022/09/02 05:35:11;;;;;;;10.60;9.70;;;;;;;;;;5032712;28;20088;-68
2022/09/02 05:37:38;;;;;;;11.65;10.55;;;;;;;;;;5032979;28;20088;-68
2022/09/02 05:40:04;;;;;;;12.52;10.25;;;;;;;;;;5032701;28;20085;-68
2022/09/02 05:42:33;;;;;;;10.85;9.75;;;;;;;;;;5032847;28;20559;-68
2022/09/02 05:45:00;;;;;;;10.77;9.75;;;;;;;;;;5032746;28;20081;-68
2022/09/02 05:47:26;;;;;;;11.00;10.00;;;;;;;;;;5032550;28;20123;-68
2022/09/02 05:49:53;;;;;;;11.05;9.95;;;;;;;;;;5032530;28;20057;-68
2022/09/02 05:52:19;;;;;;;10.80;9.50;;;;;;;;;;5032607;28;20107;-68
2022/09/02 05:54:48;;;;;;;10.93;9.82;;;;;;;;;;5032688;28;20096;-68
2022/09/02 05:57:15;;;;;;;11.40;10.20;;;;;;;;;;5032639;28;20053;-68
2022/09/02 05:59:42;;;;;;;12.50;9.30;;;;;;;;;;5032564;28;20088;-68
2022/09/02 06:02:10;;;;;;;11.90;9.32;;;;;;;;;;5031145;28;20092;-68
2022/09/02 06:04:40;;;;;;;9.25;8.38;;;;;;;;;;5032642;28;20103;-68
2022/09/02 06:07:07;;;;;;;15.80;9.45;;;;;;;;;;5032119;28;20627;-68
2022/09/02 06:09:36;;;;;;;11.98;9.43;;;;;;;;;;5032446;28;20049;-68
2022/09/02 06:12:03;;;;;;;10.57;9.38;;;;;;;;;;5032408;28;20134;-68
2022/09/02 06:14:30;;;;;;;13.43;9.53;;;;;;;;;;5032033;28;20509;-68
2022/09/02 06:16:57;;;;;;;12.55;9.30;;;;;;;;;;5032009;28;20567;-68
2022/09/02 06:19:24;;;;;;;11.82;10.00;;;;;;;;;;5031535;28;20089;-68
2022/09/02 06:21:51;;;;;;;12.02;9.55;;;;;;;;;;5031452;28;20497;-68
2022/09/02 06:24:18;;;;;;;10.35;9.05;;;;;;;;;;5031673;28;20096;-68
2022/09/02 06:26:44;;;;;;;9.75;8.20;;;;;;;;;;5031315;28;20046;-68
2022/09/02 06:29:11;;;;;;;9.05;8.23;;;;;;;;;;5031304;28;20100;-67
2022/09/02 06:31:42;;;;;;;9.83;7.70;;;;;;;;;;5030450;28;20041;-66
2022/09/02 06:34:11;;;;;;;10.00;9.00;;;;;;;;;;5031062;28;20692;-67
2022/09/02 06:36:38;;;;;;;9.20;8.30;;;;;;;;;;5030989;28;20079;-67
2022/09/02 06:39:04;;;;;;;11.85;7.70;;;;;;;;;;5029613;28;20052;-68
2022/09/02 06:41:32;;;;;;;10.10;7.10;;;;;;;;;;5028760;28;20111;-68
2022/09/02 06:44:03;;;;;;;12.95;8.32;;;;;;;;;;5031019;28;20104;-68
2022/09/02 06:46:34;;;;;;;12.35;8.98;;;;;;;;;;5031964;28;20058;-68
2022/09/02 06:49:02;;;;;;;11.07;7.70;;;;;;;;;;5031630;28;20124;-68
2022/09/02 06:51:33;;;;;;;10.50;8.25;;;;;;;;;;5030350;28;20057;-69
2022/09/02 06:54:00;;;;;;;9.48;8.50;;;;;;;;;;5028395;28;20823;-67
2022/09/02 06:56:26;;;;;;;9.73;8.95;;;;;;;;;;5031224;28;20091;-68
2022/09/02 06:58:53;;;;;;;11.57;7.85;;;;;;;;;;5030804;28;20081;-68
2022/09/02 07:01:20;;;;;;;9.07;7.65;;;;;;;;;;5031217;28;20073;-68
2022/09/02 07:06:35;;;;;;;11.38;7.85;;;;;;;;;;5031402;28;20528;-68
2022/09/02 07:09:02;;;;;;;9.38;7.32;;;;;;;;;;5031560;28;20076;-68
2022/09/02 07:11:28;;;;;;;11.30;8.65;;;;;;;;;;5031323;28;20498;-68
2022/09/02 07:13:55;;;;;;;8.98;7.50;;;;;;;;;;5031605;28;20469;-68
2022/09/02 07:16:22;;;;;;;11.68;7.43;;;;;;;;;;5031672;28;20053;-68
2022/09/02 07:18:53;;;;;;;8.13;7.30;;;;;;;;;;5031598;28;20061;-68
2022/09/02 07:21:19;;;;;;;8.23;7.45;;;;;;;;;;5031400;28;20425;-68
2022/09/02 07:23:45;;;;;;;9.10;7.20;;;;;;;;;;5031208;28;20046;-68
2022/09/02 07:26:16;;;;;;;9.38;6.82;;;;;;;;;;5029717;28;20045;-68
2022/09/02 07:28:42;;;;;;;7.82;6.95;;;;;;;;;;5031059;28;20111;-68
2022/09/02 07:31:09;;;;;;;7.03;6.15;;;;;;;;;;5030595;28;20085;-67
2022/09/02 07:33:36;;;;;;;10.05;6.55;;;;;;;;;;5029413;28;20497;-68
2022/09/02 07:36:05;;;;;;;7.35;6.25;;;;;;;;;;5030923;28;20089;-68
2022/09/02 07:38:37;;;;;;;7.25;5.80;;;;;;;;;;5030535;28;20049;-68
2022/09/02 07:41:04;;;;;;;8.33;6.50;;;;;;;;;;5030609;28;20116;-69
2022/09/02 07:43:32;;;;;;;6.65;6.05;;;;;;;;;;5030425;28;20143;-69
2022/09/02 07:45:59;;;;;;;11.25;6.45;;;;;;;;;;5030664;28;20053;-69
2022/09/02 07:48:26;;;;;;;;;;;;;;;;;;5030615;28;20489;-69
2022/09/02 07:50:52;;;;;;;8.80;5.73;;;;;;;;;;5030060;28;19921;-67
2022/09/02 07:53:19;;;;;;;7.30;5.57;;;;;;;;;;5027642;28;20049;-68
2022/09/02 07:55:46;;;;;;;8.35;5.25;;;;;;;;;;5030476;28;20475;-69
2022/09/02 07:58:14;;;;;;;7.45;4.90;;;;;;;;;;5034001;28;20046;-69
2022/09/02 08:00:42;;;;;;;6.93;4.65;;;;;;;;;;5033170;28;20085;-68
2022/09/02 08:03:09;;;;;;;6.38;4.53;;;;;;;;;;5033662;28;20489;-68
2022/09/02 08:05:36;;;;;;;5.75;3.88;;;;;;;;;;5032183;28;20085;-68
2022/09/02 08:08:03;;;;;;;3.75;3.33;;;;;;;;;;5033801;28;20084;-68
2022/09/02 08:10:29;;;;;;;4.80;3.15;;;;;;;;;;5032711;28;20053;-68
2022/09/02 08:12:59;;;;;;;7.00;3.30;;;;;;;;;;5033009;28;20089;-68
2022/09/02 08:15:27;;;;;;;6.53;3.15;;;;;;;;;;5033723;28;20096;-68
2022/09/02 08:17:57;;;;;;;6.72;2.90;;;;;;;;;;5033940;28;20089;-68
2022/09/02 08:20:24;;;;;;;5.05;2.65;;;;;;;;;;5033576;28;20458;-68
2022/09/02 08:22:50;;;;;;;7.75;2.78;;;;;;;;;;5033475;28;20498;-68
2022/09/02 08:25:36;;;;;;;7.38;2.97;;;;;;;;;;5033940;28;20049;-67
2022/09/02 08:28:03;;;;;;;8.48;3.25;;;;;;;;;;5033720;28;20100;-68
2022/09/02 08:30:30;;;;;;;5.43;3.03;;;;;;;;;;5033615;28;20490;-68
2022/09/02 08:32:56;;;;;;;6.55;3.03;;;;;;;;;;5033834;28;20092;-67
2022/09/02 08:35:23;;;;;;;6.88;3.15;;;;;;;;;;5033454;28;20493;-68
2022/09/02 08:37:50;;;;;;;6.13;2.70;;;;;;;;;;5033109;28;20081;-71
2022/09/02 08:40:18;;;;;;;4.75;2.85;;;;;;;;;;5032874;28;20536;-69
2022/09/02 08:42:51;;;;;;;6.28;2.92;;;;;;;;;;5033147;28;20045;-69
2022/09/02 08:45:17;;;;;;;6.18;3.05;;;;;;;;;;5033341;28;20435;-67
2022/09/02 08:47:46;;;;;;;6.20;2.87;;;;;;;;;;5032981;28;20087;-70
2022/09/02 08:50:14;;;;;;;6.22;3.08;;;;;;;;;;5032773;28;20314;-69
2022/09/02 08:52:59;;;;;;;9.18;3.13;;;;;;;;;;5032607;28;20504;-70
2022/09/02 08:55:31;;;;;;;4.90;2.50;;;;;;;;;;5029803;28;20497;-70
2022/09/02 08:57:57;;;;;;;5.25;3.10;;;;;;;;;;5032763;28;20049;-69
2022/09/02 09:00:24;;;;;;;8.30;3.13;;;;;;;;;;5032563;28;20050;-69
2022/09/02 09:03:03;;;;;;;6.87;2.90;;;;;;;;;;5032684;28;20076;-68
2022/09/02 09:05:41;;;;;;;11.30;3.00;;;;;;;;;;5030685;28;20046;-69
2022/09/02 09:08:14;;;;;;;5.20;2.80;;;;;;;;;;5031174;28;20493;-68
2022/09/02 09:11:09;;;;;;;6.03;2.70;;;;;;;;;;5030567;28;20128;-67
2022/09/02 09:13:38;;;;;;;5.50;2.72;;;;;;;;;;5032933;28;20088;-68
2022/09/02 09:16:13;;;;;;;6.22;2.60;;;;;;;;;;5032636;28;20513;-68
2022/09/02 09:18:44;;;;;;;6.55;2.80;;;;;;;;;;5032406;28;20122;-68
2022/09/02 09:21:13;;;;;;;4.50;2.40;;;;;;;;;;5032651;28;20049;-68
2022/09/02 09:23:40;;;;;;;6.95;2.30;;;;;;;;;;5032323;28;20057;-68
2022/09/02 09:26:08;;;;;;;4.65;2.35;;;;;;;;;;5032510;28;20440;-69
2022/09/02 09:28:48;;;;;;;6.35;2.47;;;;;;;;;;5032376;28;20102;-68
2022/09/02 09:31:21;;;;;;;6.05;2.10;;;;;;;;;;5032265;28;20331;-68
2022/09/02 09:33:58;;;;;;;5.70;2.22;;;;;;;;;;5032098;28;20120;-68
2022/09/02 09:36:40;;;;;;;5.70;2.50;;;;;;;;;;5032013;28;20438;-70
2022/09/02 09:39:23;;;;;;;4.97;1.75;;;;;;;;;;5030892;28;20049;-70
2022/09/02 09:41:54;;;;;;;5.93;2.28;;;;;;;;;;5032268;28;20057;-68
2022/09/02 09:44:33;;;;;;;4.95;2.08;;;;;;;;;;5030167;28;20045;-69
2022/09/02 09:47:00;;;;;;;4.47;2.10;;;;;;;;;;5031887;28;20456;-69
2022/09/02 09:49:27;;;;;;;5.65;1.88;;;;;;;;;;5032093;28;20566;-69
2022/09/02 09:51:54;;;;;;;5.20;2.08;;;;;;;;;;5031930;28;20092;-69
2022/09/02 09:54:24;;;;;;;6.22;2.10;;;;;;;;;;5032178;28;20080;-68
2022/09/02 09:56:50;;;;;;;4.30;1.95;;;;;;;;;;5031805;28;20073;-69
2022/09/02 09:59:35;;;;;;;4.82;1.98;;;;;;;;;;5032031;28;20080;-68
2022/09/02 10:02:02;;;;;;;3.72;2.20;;;;;;;;;;5032003;28;20042;-69
2022/09/02 10:04:30;;;;;;;3.67;2.03;;;;;;;;;;5028753;28;20050;-69
2022/09/02 10:07:10;;;;;;;4.90;2.15;;;;;;;;;;5030529;28;20504;-69
2022/09/02 10:09:36;;;;;;;3.55;2.13;;;;;;;;;;5030741;28;20050;-69
2022/09/02 10:12:04;;;;;;;6.38;2.33;;;;;;;;;;5030664;28;20053;-69
2022/09/02 10:14:38;;;;;;;4.10;1.75;;;;;;;;;;5031959;28;20053;-69
2022/09/02 10:17:23;;;;;;;3.45;1.83;;;;;;;;;;5031727;28;20057;-69
2022/09/02 10:20:00;;;;;;;5.03;2.08;;;;;;;;;;5031740;28;20049;-69
2022/09/02 10:22:48;;;;;;;4.65;2.08;;;;;;;;;;5031951;28;20049;-69
2022/09/02 10:25:44;;;;;;;3.33;2.10;;;;;;;;;;5032022;28;20494;-69
2022/09/02 10:28:25;;;;;;;5.45;1.85;;;;;;;;;;5032563;28;20049;-69
2022/09/02 10:31:10;;;;;;;2.97;2.28;;;;;;;;;;5031845;28;20057;-69
2022/09/02 10:33:45;;;;;;;5.50;2.45;;;;;;;;;;5032070;28;20080;-69
2022/09/02 10:36:19;;;;;;;3.75;2.47;;;;;;;;;;5031807;28;20111;-69
2022/09/02 10:38:50;;;;;;;5.55;2.30;;;;;;;;;;5032058;28;20050;-69
2022/09/02 10:41:20;;;;;;;3.35;1.90;;;;;;;;;;5031651;28;20045;-69
2022/09/02 10:44:05;;;;;;;4.20;1.85;;;;;;;;;;5031813;28;20041;-69
2022/09/02 10:46:40;;;;;;;4.23;1.70;;;;;;;;;;5031853;28;20077;-69
2022/09/02 10:49:16;;;;;;;3.87;1.97;;;;;;;;;;5031657;28;20049;-69
2022/09/02 10:52:04;;;;;;;6.10;2.20;;;;;;;;;;5031568;28;20085;-69
2022/09/02 10:54:39;;;;;;;3.58;2.17;;;;;;;;;;5031540;28;20061;-69
2022/09/02 10:57:32;;;;;;;3.92;2.10;;;;;;;;;;5030398;28;20064;-69
2022/09/02 11:00:03;;;;;;;3.78;1.67;;;;;;;;;;5031126;28;20564;-69
2022/09/02 11:02:33;;;;;;;4.45;1.63;;;;;;;;;;5031633;28;20118;-69
2022/09/02 11:05:20;;;;;;;5.15;1.83;;;;;;;;;;5031441;28;20132;-69
2022/09/02 11:07:47;;;;;;;3.45;1.60;;;;;;;;;;5017551;28;20053;-69
2022/09/02 11:10:13;;;;;;;;;;;;;;;;;;5031919;28;20046;-69
2022/09/02 11:12:45;;;;;;;4.13;2.33;;;;;;;;;;5031352;28;20365;-69
2022/09/02 11:15:19;;;;;;;5.85;2.10;;;;;;;;;;5031766;28;20085;-69
2022/09/02 11:17:48;;;;;;;3.67;1.90;;;;;;;;;;5031781;28;20046;-69
2022/09/02 11:20:14;;;;;;;5.60;2.10;;;;;;;;;;5031199;28;20064;-69
2022/09/02 11:22:41;;;;;;;;;;;;;;;;;;5031570;28;20049;-69
2022/09/02 11:25:10;;;;;;;4.75;2.30;;;;;;;;;;5031399;28;20376;-69
2022/09/02 11:27:37;;;;;;;5.80;2.63;;;;;;;;;;5031197;28;20563;-69
2022/09/02 11:30:13;;;;;;;4.50;2.10;;;;;;;;;;5032601;28;20053;-69
2022/09/02 11:32:42;;;;;;;4.30;2.10;;;;;;;;;;5035304;28;20089;-69
2022/09/02 11:35:13;;;;;;;4.05;1.90;;;;;;;;;;5035342;28;20069;-69
2022/09/02 11:37:46;;;;;;;3.47;1.90;;;;;;;;;;5035203;28;20084;-69
2022/09/02 11:40:36;;;;;;;4.50;2.70;;;;;;;;;;5035270;28;20452;-69
2022/09/02 11:43:07;;;;;;;3.90;2.63;;;;;;;;;;5033592;28;20128;-69
2022/09/02 11:45:33;;;;;;;3.13;2.40;;;;;;;;;;5035138;28;20064;-69
2022/09/02 11:48:00;;;;;;;;;;;;;;;;;;5035117;28;20053;-69
2022/09/02 11:50:27;;;;;;;3.38;2.45;;;;;;;;;;5034740;28;19967;-69
2022/09/02 11:53:18;;;;;;;3.80;2.58;;;;;;;;;;5034811;28;20511;-69
2022/09/02 11:55:45;;;;;;;5.18;2.20;;;;;;;;;;5034610;28;20053;-69
2022/09/02 11:58:31;;;;;;;4.82;2.03;;;;;;;;;;5034979;28;20095;-69
2022/09/02 12:00:57;;;;;;;5.05;2.92;;;;;;;;;;5034748;28;20049;-69
2022/09/02 12:03:28;;;;;;;4.85;2.75;;;;;;;;;;5033162;28;20128;-69
2022/09/02 12:06:17;;;;;;;7.55;2.80;;;;;;;;;;5021772;28;20056;-68
2022/09/02 12:08:44;;;;;;;4.82;2.92;;;;;;;;;;5034738;28;20069;-69
2022/09/02 12:11:29;;;;;;;4.13;2.55;;;;;;;;;;5034385;28;20046;-69
2022/09/02 12:13:57;;;;;;;5.93;2.33;;;;;;;;;;5034203;28;20056;-69
2022/09/02 12:16:27;;;;;;;4.60;2.30;;;;;;;;;;5034569;28;20053;-69
2022/09/02 12:18:56;;;;;;;3.58;2.30;;;;;;;;;;5034419;28;20057;-69
2022/09/02 12:21:26;;;;;;;5.93;2.65;;;;;;;;;;5034127;28;20077;-69
2022/09/02 12:23:55;;;;;;;5.05;2.47;;;;;;;;;;5034176;28;20077;-69
2022/09/02 12:26:23;;;;;;;5.03;2.60;;;;;;;;;;5034573;28;20042;-69
2022/09/02 12:28:51;;;;;;;3.60;2.53;;;;;;;;;;5034086;28;20556;-69
2022/09/02 12:31:41;;;;;;;4.18;2.45;;;;;;;;;;5034020;28;20049;-69
2022/09/02 12:34:20;;;;;;;3.40;2.10;;;;;;;;;;5034228;28;20084;-70
2022/09/02 12:37:02;;;;;;;6.00;2.60;;;;;;;;;;5034179;28;20049;-69
2022/09/02 12:39:31;;;;;;;3.95;2.38;;;;;;;;;;5033972;28;20107;-69
2022/09/02 12:42:10;;;;;;;7.32;2.85;;;;;;;;;;5033630;28;20110;-69
2022/09/02 12:44:45;;;;;;;5.05;3.20;;;;;;;;;;5033981;28;20119;-69
2022/09/02 12:47:25;;;;;;;4.80;2.63;;;;;;;;;;5033839;28;20069;-69
2022/09/02 12:50:10;;;;;;;5.47;2.22;;;;;;;;;;5034005;28;20054;-69
2022/09/02 12:52:36;;;;;;;4.88;2.30;;;;;;;;;;5033877;28;20054;-69
2022/09/02 12:55:09;;;;;;;11.48;3.22;;;;;;;;;;5033592;28;20103;-69
2022/09/02 12:57:40;;;;;;;4.97;2.40;;;;;;;;;;5033924;28;20379;-69
2022/09/02 13:00:07;;;;;;;4.30;2.40;;;;;;;;;;5033750;28;20104;-69
2022/09/02 13:03:02;;;;;;;5.40;2.40;;;;;;;;;;5033412;28;20068;-69
2022/09/02 13:05:37;;;;;;;4.80;2.40;;;;;;;;;;5033094;28;20049;-69
2022/09/02 13:08:22;;;;;;;4.90;2.25;;;;;;;;;;5033425;28;20083;-69
2022/09/02 13:11:07;;;;;;;4.00;2.30;;;;;;;;;;5033296;28;20073;-69
2022/09/02 13:13:40;;;;;;;2.30;2.10;;;;;;;;;;5033293;28;20045;-69
2022/09/02 13:16:06;;;;;;;3.97;2.40;;;;;;;;;;5033132;28;20099;-69
2022/09/02 13:18:56;;;;;;;4.13;2.17;;;;;;;;;;5033554;28;20046;-69
2022/09/02 13:21:41;;;;;;;3.25;2.40;;;;;;;;;;5033165;28;20085;-69
2022/09/02 13:24:08;;;;;;;4.78;2.13;;;;;;;;;;5033110;28;20413;-69
2022/09/02 13:26:34;;;;;;;;;;;;;;;;;;5033763;28;20037;-69
2022/09/02 13:29:16;;;;;;;3.47;2.28;;;;;;;;;;5032009;28;19933;-69
2022/09/02 13:31:57;;;;;;;4.50;2.55;;;;;;;;;;5033208;28;20049;-69
2022/09/02 13:34:23;;;;;;;2.53;2.20;;;;;;;;;;5032784;28;20085;-69
2022/09/02 13:36:50;;;;;;;3.90;1.80;;;;;;;;;;5032784;28;20073;-69
2022/09/02 13:39:22;;;;;;;5.07;2.35;;;;;;;;;;5033082;28;20453;-69
2022/09/02 13:41:49;;;;;;;3.72;2.30;;;;;;;;;;5032746;28;20083;-70
2022/09/02 13:44:23;;;;;;;2.33;1.90;;;;;;;;;;5032639;28;20103;-69
2022/09/02 13:47:01;;;;;;;4.13;2.42;;;;;;;;;;5032861;28;20133;-69
2022/09/02 13:49:34;;;;;;;3.75;2.50;;;;;;;;;;5032977;28;20073;-69
2022/09/02 13:52:04;;;;;;;3.10;1.85;;;;;;;;;;5031581;28;20057;-69
2022/09/02 13:54:32;;;;;;;2.78;2.10;;;;;;;;;;5032367;28;20076;-70
2022/09/02 13:57:03;;;;;;;2.67;2.08;;;;;;;;;;5032644;28;20045;-70
2022/09/02 13:59:50;;;;;;;4.00;2.05;;;;;;;;;;5032610;28;20085;-69
2022/09/02 14:02:21;;;;;;;4.57;2.17;;;;;;;;;;5028480;28;20072;-69
2022/09/02 14:04:50;;;;;;;3.60;2.33;;;;;;;;;;5032256;28;20041;-68
2022/09/02 14:07:22;;;;;;;4.20;2.38;;;;;;;;;;5031870;28;20127;-69
2022/09/02 14:09:49;;;;;;;6.53;2.60;;;;;;;;;;5031189;28;20076;-69
2022/09/02 14:12:16;;;;;;;4.88;2.33;;;;;;;;;;5031326;28;20138;-69
2022/09/02 14:14:42;;;;;;;2.40;1.60;;;;;;;;;;5031152;28;20567;-69
2022/09/02 14:17:20;;;;;;;2.80;1.90;;;;;;;;;;5031165;28;20080;-69
2022/09/02 14:19:47;;;;;;;4.85;2.28;;;;;;;;;;5031439;28;20049;-69
2022/09/02 14:22:22;;;;;;;2.55;1.42;;;;;;;;;;5028318;28;20391;-69
2022/09/02 14:24:48;;;;;;;3.42;1.83;;;;;;;;;;5030954;28;20099;-69
2022/09/02 14:27:17;;;;;;;3.47;1.80;;;;;;;;;;5030939;28;20444;-69
2022/09/02 14:29:44;;;;;;;3.05;1.63;;;;;;;;;;5031526;28;20041;-69
2022/09/02 14:32:12;;;;;;;5.00;1.95;;;;;;;;;;5031297;28;20081;-69
2022/09/02 14:34:39;;;;;;;3.03;1.73;;;;;;;;;;5019484;28;20496;-69
2022/09/02 14:37:14;;;;;;;2.75;1.50;;;;;;;;;;5030473;28;20460;-69
2022/09/02 14:39:53;;;;;;;2.92;1.35;;;;;;;;;;5030569;28;20077;-70
2022/09/02 14:42:19;;;;;;;2.83;1.50;;;;;;;;;;5030094;28;20056;-69
2022/09/02 14:44:46;;;;;;;2.00;1.80;;;;;;;;;;5032009;28;20073;-69
2022/09/02 14:47:13;;;;;;;2.40;1.65;;;;;;;;;;5031523;28;20077;-69
2022/09/02 14:49:50;;;;;;;1.95;1.52;;;;;;;;;;5031244;28;20506;-69
2022/09/02 14:52:22;;;;;;;2.53;1.60;;;;;;;;;;5031519;28;20449;-69
2022/09/02 14:54:49;;;;;;;2.47;1.77;;;;;;;;;;5031719;28;20088;-69
2022/09/02 14:57:26;;;;;;;1.63;1.52;;;;;;;;;;5031561;28;20049;-70
2022/09/02 14:59:54;;;;;;;2.20;1.80;;;;;;;;;;5032111;28;20057;-70
2022/09/02 15:02:22;;;;;;;3.42;1.83;;;;;;;;;;5031383;28;20045;-70